Terminal Aerodrome Forecast
Issued by NWS Chicago, IL

Home | Current Version | Previous Version | Text Only | Print | Product List | Glossary On
Versions: 1 2 3 4 5 6 7 8 9 10 11 12 13 14 15 16 17 18 19 20 21 22 23 24 25 26 27 28 29 30 31 32 33 34 35 36 37
000
FTUS43 KLOT 012200 AAB
TAFRFD
TAF AMD
KRFD 012210Z 0122/0218 24012G18KT P6SM SCT045
     FM012345 24010KT P6SM VCTS BKN045CB
      TEMPO 0200/0201 5SM SHRA OVC045
     FM020115 25007KT P6SM SCT040
     FM020800 30008KT P6SM SCT040
     FM021700 27006KT P6SM SCT200=

USA.gov is the U.S. government's official web portal to all federal, state and local government web resources and services.